createdAt,value
2017-12-16T00:02:20.367Z,95.83
2017-12-16T00:04:47.887Z,93.80
2017-12-16T00:07:15.467Z,95.07
2017-12-16T00:09:43.062Z,111.17
2017-12-16T00:12:10.592Z,111.70
2017-12-16T00:14:38.116Z,131.87
2017-12-16T00:17:05.661Z,135.30
2017-12-16T00:19:33.181Z,162.83
2017-12-16T00:22:00.815Z,154.87
2017-12-16T00:24:28.349Z,171.73
2017-12-16T00:26:55.901Z,166.90
2017-12-16T00:29:23.451Z,185.90
2017-12-16T00:31:50.996Z,152.60
2017-12-16T00:34:18.519Z,178.53
2017-12-16T00:36:46.095Z,147.07
2017-12-16T00:39:13.617Z,155.87
2017-12-16T00:41:41.136Z,180.53
2017-12-16T00:44:08.693Z,148.80
2017-12-16T00:46:36.212Z,176.33
2017-12-16T00:49:03.798Z,159.87
2017-12-16T00:51:31.324Z,172.00
2017-12-16T00:53:58.839Z,188.47
2017-12-16T00:56:26.424Z,172.67
2017-12-16T00:58:53.942Z,176.40
2017-12-16T01:01:21.509Z,150.00
2017-12-16T01:03:49.067Z,160.20
2017-12-16T01:06:16.589Z,157.33
2017-12-16T01:08:44.114Z,160.23
2017-12-16T01:11:11.656Z,170.57
2017-12-16T01:13:39.167Z,137.90
2017-12-16T01:16:06.709Z,157.97
2017-12-16T01:18:34.232Z,142.20
2017-12-16T01:21:02.108Z,142.17
2017-12-16T01:23:29.636Z,160.60
2017-12-16T01:25:57.158Z,177.30
2017-12-16T01:28:24.740Z,161.13
2017-12-16T01:30:52.274Z,162.23
2017-12-16T01:33:19.820Z,169.00
2017-12-16T01:38:51.277Z,149.87
2017-12-16T01:41:18.861Z,149.33
2017-12-16T01:43:46.395Z,163.07
2017-12-16T01:46:13.918Z,171.30
2017-12-16T01:48:41.858Z,189.90
2017-12-16T01:51:09.497Z,191.47
2017-12-16T01:53:37.049Z,161.23
2017-12-16T01:56:04.618Z,178.43
2017-12-16T01:58:32.156Z,179.27
2017-12-16T02:00:59.789Z,173.10
2017-12-16T02:03:27.328Z,184.10
2017-12-16T02:05:54.857Z,188.10
2017-12-16T02:08:22.424Z,172.53
2017-12-16T02:10:49.955Z,169.93
2017-12-16T02:13:17.483Z,168.50
2017-12-16T02:15:45.076Z,153.03
2017-12-16T02:18:12.621Z,176.87
2017-12-16T02:20:40.155Z,180.77
2017-12-16T02:23:07.716Z,191.40
2017-12-16T02:25:35.673Z,178.60
2017-12-16T02:28:03.212Z,165.47
2017-12-16T02:30:30.770Z,138.03
2017-12-16T02:32:58.369Z,151.20
2017-12-16T02:35:25.929Z,133.33
2017-12-16T02:37:53.477Z,183.47
2017-12-16T02:40:21.081Z,204.40
2017-12-16T02:42:48.625Z,188.97
2017-12-16T02:45:16.155Z,188.20
2017-12-16T02:47:43.745Z,174.67
2017-12-16T02:50:11.286Z,194.80
2017-12-16T02:52:38.832Z,231.47
2017-12-16T02:55:06.728Z,226.90
2017-12-16T02:57:34.265Z,235.83
2017-12-16T03:00:01.804Z,223.20
2017-12-16T03:02:29.379Z,243.63
2017-12-16T03:04:56.920Z,260.90
2017-12-16T03:07:24.477Z,256.00
2017-12-16T03:09:52.099Z,252.47
2017-12-16T03:12:19.633Z,258.37
2017-12-16T03:14:47.180Z,229.83
2017-12-16T03:17:14.752Z,247.33
2017-12-16T03:19:42.296Z,241.90
2017-12-16T03:22:09.831Z,251.87
2017-12-16T03:24:37.427Z,264.43
2017-12-16T03:27:04.977Z,246.00
2017-12-16T03:29:32.530Z,266.30
2017-12-16T03:32:00.472Z,257.17
2017-12-16T03:34:28.003Z,229.50
2017-12-16T03:36:55.544Z,238.27
2017-12-16T03:39:23.481Z,207.07
2017-12-16T03:41:51.020Z,213.30
2017-12-16T03:44:18.557Z,229.97
2017-12-16T03:46:46.119Z,232.33
2017-12-16T03:49:13.648Z,229.87
2017-12-16T03:51:41.264Z,255.97
2017-12-16T03:54:08.792Z,226.70
2017-12-16T03:56:36.327Z,255.33
2017-12-16T03:59:03.928Z,225.57
2017-12-16T04:01:31.472Z,255.23
2017-12-16T04:03:59.043Z,237.57
2017-12-16T04:06:26.586Z,240.27
2017-12-16T04:08:54.177Z,245.00
2017-12-16T04:11:21.696Z,243.07
2017-12-16T04:13:49.233Z,233.40
2017-12-16T04:16:16.840Z,241.10
2017-12-16T04:18:44.375Z,247.47
2017-12-16T04:21:12.709Z,249.90
2017-12-16T04:23:40.302Z,223.80
2017-12-16T04:26:07.848Z,244.13
2017-12-16T04:28:35.388Z,202.53
2017-12-16T04:31:02.979Z,188.07
2017-12-16T04:33:30.516Z,171.47
2017-12-16T04:35:58.068Z,185.07
2017-12-16T04:38:25.619Z,228.73
2017-12-16T04:40:53.195Z,253.73
2017-12-16T04:43:20.844Z,218.53
2017-12-16T04:45:48.397Z,218.13
2017-12-16T04:48:15.987Z,221.83
2017-12-16T04:50:43.537Z,237.17
2017-12-16T04:53:11.093Z,254.00
2017-12-16T04:55:39.399Z,247.83
2017-12-16T04:58:06.946Z,218.43
2017-12-16T05:00:34.485Z,241.93
2017-12-16T05:03:02.387Z,218.60
2017-12-16T05:05:29.917Z,228.23
2017-12-16T05:07:57.462Z,223.00
2017-12-16T05:10:25.433Z,255.20
2017-12-16T05:12:53.003Z,260.13
2017-12-16T05:15:20.532Z,237.70
2017-12-16T05:17:48.134Z,237.50
2017-12-16T05:20:15.685Z,251.87
2017-12-16T05:22:43.232Z,238.43
2017-12-16T05:25:10.824Z,216.27
2017-12-16T05:27:38.349Z,237.20
2017-12-16T05:30:05.892Z,204.70
2017-12-16T05:32:33.793Z,216.47
2017-12-16T05:35:01.336Z,187.07
2017-12-16T05:37:28.881Z,177.23
2017-12-16T05:39:56.803Z,171.10
2017-12-16T05:42:24.417Z,191.00
2017-12-16T05:44:51.941Z,146.60
2017-12-16T05:47:19.533Z,186.93
2017-12-16T05:49:47.080Z,158.73
2017-12-16T05:52:14.611Z,155.07
2017-12-16T05:54:42.189Z,155.83
2017-12-16T05:57:09.741Z,151.00
2017-12-16T05:59:37.310Z,146.47
2017-12-16T06:02:04.854Z,143.07
2017-12-16T06:04:32.446Z,139.90
2017-12-16T06:06:59.989Z,166.77
2017-12-16T06:09:27.549Z,164.83
2017-12-16T06:11:55.464Z,126.33
2017-12-16T06:14:22.998Z,162.27
2017-12-16T06:16:50.530Z,149.23
2017-12-16T06:19:18.437Z,141.93
2017-12-16T06:21:45.995Z,116.17
2017-12-16T06:24:13.544Z,99.17
2017-12-16T06:26:41.132Z,110.50
2017-12-16T06:29:08.689Z,110.90
2017-12-16T06:31:36.229Z,93.13
2017-12-16T06:34:03.821Z,113.73
2017-12-16T06:36:31.372Z,111.23
2017-12-16T06:38:58.919Z,112.07
2017-12-16T06:41:26.521Z,122.63
2017-12-16T06:43:54.051Z,95.17
2017-12-16T06:46:21.584Z,122.00
2017-12-16T06:48:49.161Z,102.50
2017-12-16T06:51:16.720Z,106.27
2017-12-16T06:53:44.321Z,96.33
2017-12-16T06:56:11.865Z,90.50
2017-12-16T06:58:39.426Z,105.43
2017-12-16T07:01:06.983Z,99.13
2017-12-16T07:03:34.588Z,110.23
2017-12-16T07:06:02.154Z,95.47
2017-12-16T07:08:29.684Z,95.37
2017-12-16T07:10:57.628Z,90.90
2017-12-16T07:13:25.155Z,86.53
2017-12-16T07:15:52.692Z,72.80
2017-12-16T07:18:20.264Z,86.47
2017-12-16T07:20:47.806Z,93.27
2017-12-16T07:23:15.344Z,84.17
2017-12-16T07:25:42.949Z,73.63
2017-12-16T07:28:10.497Z,62.67
2017-12-16T07:30:38.049Z,58.57
2017-12-16T07:33:05.884Z,67.13
2017-12-16T07:35:33.420Z,50.97
2017-12-16T07:38:00.950Z,42.93
2017-12-16T07:40:28.515Z,51.50
2017-12-16T07:42:56.029Z,57.43
2017-12-16T07:45:23.547Z,39.40
2017-12-16T07:47:51.132Z,54.00
2017-12-16T07:50:18.648Z,52.57
2017-12-16T07:52:46.195Z,37.67
2017-12-16T07:55:14.158Z,41.50
2017-12-16T07:57:41.695Z,37.67
2017-12-16T08:00:09.230Z,56.80
2017-12-16T08:02:36.799Z,53.87
2017-12-16T08:05:04.398Z,48.37
2017-12-16T08:07:31.912Z,48.27
2017-12-16T08:09:59.428Z,58.07
2017-12-16T08:12:26.987Z,32.03
2017-12-16T08:14:54.533Z,49.13
2017-12-16T08:17:22.102Z,43.97
2017-12-16T08:19:49.640Z,31.67
2017-12-16T08:22:17.168Z,44.60
2017-12-16T08:24:44.688Z,53.53
2017-12-16T08:27:12.265Z,35.83
2017-12-16T08:29:39.801Z,42.20
2017-12-16T08:32:07.320Z,35.70
2017-12-16T08:34:35.217Z,45.73
2017-12-16T08:37:02.736Z,42.27
2017-12-16T08:39:30.256Z,40.03
2017-12-16T08:41:57.840Z,58.47
2017-12-16T08:44:25.369Z,35.40
2017-12-16T08:46:52.884Z,33.30
2017-12-16T08:49:20.424Z,29.90
2017-12-16T08:51:47.935Z,33.07
2017-12-16T08:54:15.895Z,26.80
2017-12-16T08:56:43.412Z,33.13
2017-12-16T08:59:10.948Z,23.00
2017-12-16T09:01:38.723Z,25.07
2017-12-16T09:04:06.251Z,33.23
2017-12-16T09:06:33.773Z,32.70
2017-12-16T09:09:01.330Z,26.80
2017-12-16T09:11:28.840Z,24.73
2017-12-16T09:13:56.355Z,29.27
2017-12-16T09:16:23.904Z,17.70
2017-12-16T09:18:51.431Z,20.03
2017-12-16T09:21:19.008Z,30.13
2017-12-16T09:23:46.517Z,18.80
2017-12-16T09:26:14.034Z,16.90
2017-12-16T09:28:41.572Z,29.00
2017-12-16T09:31:09.112Z,15.60
2017-12-16T09:33:36.624Z,22.43
2017-12-16T09:36:04.160Z,21.93
2017-12-16T09:38:31.705Z,23.07
2017-12-16T09:40:59.284Z,13.57
2017-12-16T09:43:26.850Z,13.13
2017-12-16T09:45:54.359Z,30.60
2017-12-16T09:48:21.883Z,17.10
2017-12-16T09:50:49.767Z,20.60
2017-12-16T09:53:17.290Z,11.07
2017-12-16T09:55:44.800Z,16.30
2017-12-16T09:58:12.340Z,10.13
2017-12-16T10:00:39.853Z,7.93
2017-12-16T10:03:07.394Z,13.20
2017-12-16T10:05:34.957Z,11.13
2017-12-16T10:08:02.517Z,9.40
2017-12-16T10:10:30.041Z,3.83
2017-12-16T10:12:57.601Z,8.87
2017-12-16T10:15:25.135Z,12.93
2017-12-16T10:17:52.668Z,8.13
2017-12-16T10:20:20.245Z,8.80
2017-12-16T10:22:47.747Z,9.20
2017-12-16T10:25:15.251Z,13.33
2017-12-16T10:27:42.820Z,9.47
2017-12-16T10:30:10.344Z,10.97
2017-12-16T10:32:37.868Z,12.40
2017-12-16T10:35:05.404Z,7.17
2017-12-16T10:37:33.263Z,14.43
2017-12-16T10:40:00.772Z,10.40
2017-12-16T10:42:28.340Z,11.50
2017-12-16T10:44:55.885Z,8.60
2017-12-16T10:47:23.411Z,15.57
2017-12-16T10:49:50.940Z,6.33
2017-12-16T10:52:18.449Z,10.43
2017-12-16T10:54:46.032Z,4.40
2017-12-16T10:57:13.544Z,5.30
2017-12-16T10:59:41.048Z,8.70
2017-12-16T11:02:08.923Z,5.50
2017-12-16T11:04:36.432Z,9.47
2017-12-16T11:07:03.957Z,74.53
2017-12-16T11:09:31.501Z,124.57
2017-12-16T11:11:59.004Z,5.00
2017-12-16T11:14:26.936Z,34.27
2017-12-16T11:16:54.443Z,24.40
2017-12-16T11:19:21.955Z,32.50
2017-12-16T11:21:49.498Z,56.37
2017-12-16T11:24:17.040Z,31.10
2017-12-16T11:26:44.611Z,82.70
2017-12-16T11:29:12.156Z,73.60
2017-12-16T11:31:39.734Z,20.97
2017-12-16T11:34:07.261Z,17.80
2017-12-16T11:36:34.777Z,2.73
2017-12-16T11:39:02.342Z,3.03
2017-12-16T11:41:29.848Z,3.10
2017-12-16T11:43:57.355Z,11.33
2017-12-16T11:46:24.885Z,6.80
2017-12-16T11:48:52.392Z,5.60
2017-12-16T11:51:19.949Z,5.57
2017-12-16T11:53:47.455Z,5.00
2017-12-16T11:56:14.977Z,8.33
2017-12-16T11:58:42.542Z,5.00
2017-12-16T12:01:10.082Z,5.77
2017-12-16T12:03:37.588Z,6.90
2017-12-16T12:06:05.560Z,1.77
2017-12-16T12:08:33.068Z,6.20
2017-12-16T12:11:00.590Z,4.97
2017-12-16T12:13:28.132Z,16.03
2017-12-16T12:15:55.660Z,8.40
2017-12-16T12:18:23.165Z,5.27
2017-12-16T12:20:50.719Z,3.90
2017-12-16T12:23:18.224Z,5.60
2017-12-16T12:25:45.730Z,7.03
2017-12-16T12:28:13.412Z,5.27
2017-12-16T12:30:40.939Z,6.70
2017-12-16T12:33:08.538Z,7.87
2017-12-16T12:35:36.440Z,9.20
2017-12-16T12:38:03.944Z,8.57
2017-12-16T12:40:31.470Z,10.97
2017-12-16T12:42:59.079Z,3.77
2017-12-16T12:45:26.584Z,4.40
2017-12-16T12:47:54.084Z,7.83
2017-12-16T12:50:21.636Z,5.50
2017-12-16T12:52:49.153Z,12.70
2017-12-16T12:55:16.666Z,8.70
2017-12-16T12:57:44.191Z,3.03
2017-12-16T13:00:11.704Z,10.70
2017-12-16T13:02:39.249Z,9.93
2017-12-16T13:05:06.837Z,5.93
2017-12-16T13:07:34.472Z,3.03
2017-12-16T13:10:01.980Z,3.57
2017-12-16T13:12:29.500Z,3.90
2017-12-16T13:14:57.074Z,2.80
2017-12-16T13:17:24.661Z,6.20
2017-12-16T13:19:52.168Z,5.87
2017-12-16T13:22:19.710Z,4.17
2017-12-16T13:24:47.250Z,6.60
2017-12-16T13:27:14.768Z,8.03
2017-12-16T13:29:42.630Z,4.90
2017-12-16T13:32:10.148Z,5.93
2017-12-16T13:34:37.656Z,3.00
2017-12-16T13:37:05.233Z,6.80
2017-12-16T13:39:32.757Z,9.10
2017-12-16T13:42:00.276Z,11.30
2017-12-16T13:44:27.864Z,7.47
2017-12-16T13:46:55.368Z,4.00
2017-12-16T13:49:22.871Z,7.70
2017-12-16T13:51:50.400Z,9.53
2017-12-16T13:54:17.979Z,11.13
2017-12-16T13:56:45.492Z,8.33
2017-12-16T13:59:13.000Z,11.43
2017-12-16T14:01:40.527Z,10.60
2017-12-16T14:04:08.037Z,3.50
2017-12-16T14:06:35.586Z,12.77
2017-12-16T14:09:03.183Z,9.87
2017-12-16T14:11:30.723Z,2.70
2017-12-16T14:13:58.233Z,8.60
2017-12-16T14:16:25.755Z,4.10
2017-12-16T14:18:53.265Z,10.40
2017-12-16T14:21:20.837Z,4.13
2017-12-16T14:23:48.354Z,10.37
2017-12-16T14:26:15.861Z,8.83
2017-12-16T14:28:43.420Z,7.07
2017-12-16T14:31:10.937Z,4.33
2017-12-16T14:33:38.459Z,3.67
2017-12-16T14:36:06.026Z,11.77
2017-12-16T14:38:33.531Z,7.67
2017-12-16T14:41:01.054Z,12.50
2017-12-16T14:43:28.653Z,8.43
2017-12-16T14:45:56.158Z,7.30
2017-12-16T14:48:23.668Z,11.43
2017-12-16T14:50:51.195Z,4.73
2017-12-16T14:53:18.724Z,8.17
2017-12-16T14:55:46.238Z,2.00
2017-12-16T14:58:13.804Z,4.20
2017-12-16T15:00:41.311Z,3.20
2017-12-16T15:03:08.816Z,3.80
2017-12-16T15:05:36.386Z,6.13
2017-12-16T15:08:03.951Z,3.57
2017-12-16T15:10:31.472Z,3.20
2017-12-16T15:12:59.373Z,3.53
2017-12-16T15:15:26.876Z,1.17
2017-12-16T15:17:54.372Z,2.60
2017-12-16T15:20:21.961Z,2.30
2017-12-16T15:22:49.492Z,4.20
2017-12-16T15:25:17.054Z,7.03
2017-12-16T15:27:44.574Z,3.67
2017-12-16T15:30:12.128Z,4.63
2017-12-16T15:32:39.627Z,7.83
2017-12-16T15:35:07.142Z,16.43
2017-12-16T15:37:34.683Z,15.07
2017-12-16T15:40:02.221Z,7.87
2017-12-16T15:42:30.140Z,4.73
2017-12-16T15:44:57.707Z,2.67
2017-12-16T15:47:25.251Z,12.33
2017-12-16T15:49:52.858Z,19.67
2017-12-16T15:52:20.365Z,4.40
2017-12-16T15:54:47.878Z,6.30
2017-12-16T15:57:15.776Z,5.93
2017-12-16T15:59:43.369Z,3.13
2017-12-16T16:02:10.905Z,6.50
2017-12-16T16:04:38.799Z,9.63
2017-12-16T16:07:06.312Z,1.73
2017-12-16T16:09:33.837Z,3.07
2017-12-16T16:12:01.392Z,4.67
2017-12-16T16:14:28.928Z,3.57
2017-12-16T16:16:56.443Z,9.30
2017-12-16T16:19:23.980Z,4.43
2017-12-16T16:21:51.942Z,9.13
2017-12-16T16:24:19.447Z,1.30
2017-12-16T16:26:46.971Z,5.20
2017-12-16T16:29:14.585Z,2.33
2017-12-16T16:31:42.092Z,2.87
2017-12-16T16:34:09.627Z,7.50
2017-12-16T16:36:37.165Z,6.60
2017-12-16T16:39:04.751Z,3.47
2017-12-16T16:41:32.312Z,2.00
2017-12-16T16:43:59.851Z,4.67
2017-12-16T16:46:27.369Z,7.87
2017-12-16T16:48:54.928Z,2.37
2017-12-16T16:51:22.432Z,3.30
2017-12-16T16:53:49.944Z,3.17
2017-12-16T16:56:17.467Z,8.73
2017-12-16T16:58:45.047Z,6.97
2017-12-16T17:01:12.563Z,7.50
2017-12-16T17:03:40.073Z,3.63
2017-12-16T17:06:08.136Z,10.13
2017-12-16T17:08:35.674Z,6.77
2017-12-16T17:11:03.191Z,4.60
2017-12-16T17:13:31.080Z,5.37
2017-12-16T17:15:58.613Z,8.07
2017-12-16T17:18:26.132Z,7.40
2017-12-16T17:20:54.387Z,4.40
2017-12-16T17:23:21.901Z,8.20
2017-12-16T17:25:49.399Z,4.67
2017-12-16T17:28:16.985Z,5.60
2017-12-16T17:30:44.513Z,3.67
2017-12-16T17:33:12.060Z,12.87
2017-12-16T17:35:39.661Z,11.23
2017-12-16T17:38:07.182Z,6.00
2017-12-16T17:40:34.717Z,6.23
2017-12-16T17:43:02.289Z,4.10
2017-12-16T17:45:29.911Z,4.10
2017-12-16T17:47:57.429Z,15.00
2017-12-16T17:50:24.958Z,10.90
2017-12-16T17:52:52.511Z,5.63
2017-12-16T17:55:20.019Z,8.23
2017-12-16T17:57:47.532Z,5.07
2017-12-16T18:00:15.109Z,12.17
2017-12-16T18:02:42.632Z,10.70
2017-12-16T18:05:10.139Z,6.07
2017-12-16T18:07:37.726Z,9.80
2017-12-16T18:10:05.244Z,6.90
2017-12-16T18:12:32.757Z,8.60
2017-12-16T18:15:00.296Z,11.30
2017-12-16T18:17:27.832Z,10.07
2017-12-16T18:19:55.366Z,26.70
2017-12-16T18:22:22.932Z,6.30
2017-12-16T18:24:50.469Z,11.30
2017-12-16T18:27:17.988Z,18.80
2017-12-16T18:29:45.587Z,23.20
2017-12-16T18:32:13.113Z,12.10
2017-12-16T18:34:40.709Z,8.70
2017-12-16T18:37:08.271Z,10.20
2017-12-16T18:39:35.794Z,17.53
2017-12-16T18:42:03.328Z,13.47
2017-12-16T18:44:30.930Z,11.20
2017-12-16T18:46:58.492Z,12.73
2017-12-16T18:49:26.010Z,14.03
2017-12-16T18:51:53.538Z,10.27
2017-12-16T18:54:21.129Z,13.80
2017-12-16T18:56:48.660Z,22.27
2017-12-16T18:59:16.189Z,14.90
2017-12-16T19:01:43.775Z,11.07
2017-12-16T19:04:11.295Z,13.47
2017-12-16T19:06:38.804Z,11.63
2017-12-16T19:09:06.683Z,13.37
2017-12-16T19:11:34.202Z,13.10
2017-12-16T19:14:01.764Z,11.13
2017-12-16T19:16:29.349Z,13.80
2017-12-16T19:18:56.870Z,11.37
2017-12-16T19:21:24.382Z,23.87
2017-12-16T19:23:51.953Z,12.93
2017-12-16T19:26:19.478Z,9.47
2017-12-16T19:28:46.996Z,11.63
2017-12-16T19:31:14.566Z,14.50
2017-12-16T19:33:42.101Z,14.07
2017-12-16T19:36:09.611Z,18.10
2017-12-16T19:38:37.478Z,14.63
2017-12-16T19:41:04.992Z,13.43
2017-12-16T19:43:32.508Z,29.27
2017-12-16T19:46:00.041Z,23.73
2017-12-16T19:48:27.608Z,13.40
2017-12-16T19:50:55.157Z,13.07
2017-12-16T19:53:22.697Z,15.60
2017-12-16T19:55:50.292Z,23.63
2017-12-16T19:58:17.812Z,15.60
2017-12-16T20:00:45.406Z,16.80
2017-12-16T20:03:13.424Z,30.23
2017-12-16T20:05:41.371Z,24.07
2017-12-16T20:08:08.883Z,23.00
2017-12-16T20:10:36.415Z,18.73
2017-12-16T20:13:03.965Z,17.27
2017-12-16T20:15:31.488Z,13.50
2017-12-16T20:17:59.041Z,21.40
2017-12-16T20:20:26.577Z,39.20
2017-12-16T20:22:54.137Z,17.33
2017-12-16T20:25:21.671Z,19.43
2017-12-16T20:27:49.643Z,17.30
2017-12-16T20:30:17.156Z,21.13
2017-12-16T20:32:44.676Z,16.43
2017-12-16T20:35:12.249Z,21.03
2017-12-16T20:37:39.828Z,31.87
2017-12-16T20:40:07.349Z,21.03
2017-12-16T20:42:34.908Z,22.00
2017-12-16T20:45:02.872Z,24.40
2017-12-16T20:47:30.407Z,24.70
2017-12-16T20:49:57.995Z,40.33
2017-12-16T20:52:25.534Z,17.80
2017-12-16T20:54:53.056Z,20.33
2017-12-16T20:57:20.580Z,22.50
2017-12-16T20:59:48.147Z,30.80
2017-12-16T21:02:15.675Z,10.90
2017-12-16T21:04:43.192Z,19.53
2017-12-16T21:07:11.104Z,24.40
2017-12-16T21:09:38.624Z,31.87
2017-12-16T21:12:06.141Z,17.53
2017-12-16T21:14:33.680Z,23.50
2017-12-16T21:17:01.196Z,20.13
2017-12-16T21:19:28.773Z,19.00
2017-12-16T21:21:56.429Z,19.73
2017-12-16T21:24:23.960Z,21.23
2017-12-16T21:26:51.497Z,20.67
2017-12-16T21:29:19.047Z,20.47
2017-12-16T21:31:46.625Z,17.10
2017-12-16T21:34:14.149Z,14.53
2017-12-16T21:36:41.685Z,15.13
2017-12-16T21:39:09.253Z,17.77
2017-12-16T21:41:36.773Z,15.23
2017-12-16T21:44:04.292Z,17.53
2017-12-16T21:46:31.835Z,13.00
2017-12-16T21:48:59.356Z,23.43
2017-12-16T21:51:26.909Z,32.33
2017-12-16T21:53:54.424Z,18.93
2017-12-16T21:56:21.934Z,25.07
2017-12-16T21:58:49.503Z,19.20
2017-12-16T22:01:17.024Z,19.67
2017-12-16T22:03:44.613Z,23.23
2017-12-16T22:06:12.147Z,24.53
2017-12-16T22:08:39.698Z,17.33
2017-12-16T22:11:07.212Z,17.07
2017-12-16T22:13:35.172Z,19.50
2017-12-16T22:16:02.679Z,17.30
2017-12-16T22:18:30.219Z,31.33
2017-12-16T22:20:58.098Z,21.00
2017-12-16T22:23:25.616Z,25.27
2017-12-16T22:25:53.145Z,25.77
2017-12-16T22:28:20.683Z,27.40
2017-12-16T22:30:48.224Z,19.40
2017-12-16T22:33:15.744Z,25.73
2017-12-16T22:35:43.304Z,21.37
2017-12-16T22:38:10.838Z,19.10
2017-12-16T22:40:38.394Z,24.20
2017-12-16T22:43:06.361Z,20.67
2017-12-16T22:45:34.075Z,28.70
2017-12-16T22:48:01.603Z,19.97
2017-12-16T22:50:29.149Z,26.40
2017-12-16T22:52:56.729Z,30.37
2017-12-16T22:55:24.272Z,22.93
2017-12-16T22:57:51.797Z,33.30
2017-12-16T23:00:19.394Z,30.17
2017-12-16T23:02:46.937Z,30.70
2017-12-16T23:05:14.489Z,29.70
2017-12-16T23:07:42.105Z,25.30
2017-12-16T23:10:09.644Z,22.80
2017-12-16T23:12:37.184Z,35.67
2017-12-16T23:15:04.759Z,23.60
2017-12-16T23:17:32.320Z,26.07
2017-12-16T23:19:59.876Z,30.30
2017-12-16T23:22:27.456Z,31.93
2017-12-16T23:24:54.996Z,24.60
2017-12-16T23:27:22.536Z,25.73
2017-12-16T23:29:50.109Z,22.33
2017-12-16T23:32:17.649Z,32.93
2017-12-16T23:34:45.192Z,24.63
2017-12-16T23:37:12.762Z,27.50
2017-12-16T23:39:40.323Z,26.17
2017-12-16T23:42:07.917Z,24.40
2017-12-16T23:44:35.461Z,26.63
2017-12-16T23:47:03.013Z,25.87
2017-12-16T23:49:30.581Z,37.20
2017-12-16T23:51:58.153Z,33.03
2017-12-16T23:54:25.672Z,39.37
2017-12-16T23:56:53.239Z,32.17
2017-12-16T23:59:20.780Z,26.80
